• Join FlightAware (Why Join?)
  • Login
  • US Flag 
05:46PM EDT


 

Airport Tracker/Info


-or-


 

Live Flight TrackerFlight Track Log ✈ UAL4108 ✈ 12-Apr-2013 ✈ KLIT - KIAH

Flight Track Log - Related Links

Times and Time Zones

All times are in EDT time to prevent confusion due to time zone crossing. See the UAL4108 flight status page for this flight to view local times or setup timezone preferences in your user account.

Time Position Orientation Groundspeed Altitude Reporting Facility
EDT Latitude Longitude Course Direction KTS MPH feet Rate Location/Type
08:09PM 34.7350 -92.1994 202° Southwest 160 184 700  Level Memphis Center
08:10PM 34.7464 -92.1464 75° East 210 242 2,700 2,340 Climbing Memphis Center
08:11PM 34.7028 -92.1178 152° Southeast 250 288 5,000 2,340 Climbing Memphis Center
08:12PM 34.6694 -92.1272 193° South 271 312 6,000 3,000 Climbing Memphis Center
08:13PM 34.4164 -92.4426 190° South  Level Estimated
08:13PM 34.6022 -92.1511 196° South 307 353 9,100  Level Memphis Center
08:14PM 34.3381 -92.4968 193° South  Level Estimated
08:14PM 34.5183 -92.1794 196° South 302 348 10,600  Level Memphis Center
08:15PM 34.2597 -92.5509 202° Southwest  Level Estimated
08:15PM 34.4261 -92.2103 195° South 321 369 12,600  Level Memphis Center
08:16PM 34.3339 -92.2411 195° South 347 399 14,800 2,100 Climbing Memphis Center
08:17PM 34.2356 -92.2642 191° South 353 406 16,900 2,040 Climbing Memphis Center
08:18PM 34.1369 -92.2819 188° South 359 413 18,900 1,980 Climbing Memphis Center
08:19PM 34.0492 -92.3025 191° South 359 413 20,900 1,020 Climbing Memphis Center
08:21PM 33.8433 -92.3372 188° South 370 426 22,000 360 Climbing Fort Worth Center
08:22PM 33.7336 -92.3586 189° South 392 451 22,000  Level Fort Worth Center
08:23PM 33.6217 -92.3775 188° South 411 473 22,000  Level Fort Worth Center
08:24PM 33.5119 -92.3986 189° South 406 467 22,000  Level Fort Worth Center
08:25PM 33.4022 -92.4197 189° South 406 467 22,000  Level Fort Worth Center
08:26PM 33.2881 -92.4386 188° South 406 467 22,000  Level Fort Worth Center
08:27PM 33.1742 -92.4600 189° South 413 475 22,000  Level Fort Worth Center
08:28PM 33.0583 -92.4839 190° South 420 483 22,000  Level Fort Worth Center
08:29PM 32.9442 -92.5000 187° South 425 489 22,000  Level Fort Worth Center
08:30PM 32.8300 -92.5186 188° South 425 489 22,000  Level Fort Worth Center
08:31PM 32.7161 -92.5419 190° South 425 489 22,000  Level Fort Worth Center
08:33PM 32.4850 -92.5872 189° South 415 478 22,000  Level Houston Center
08:34PM 32.3719 -92.6056 188° South 412 474 22,000  Level Houston Center
08:35PM 32.2581 -92.6264 189° South 413 475 22,000  Level Houston Center
08:36PM 32.1208 -92.6517 189° South 416 479 22,000  Level Houston Center
08:37PM 32.0072 -92.6722 189° South 415 478 22,000  Level Houston Center
08:38PM 31.9136 -92.7369 210° Southwest 395 455 22,000  Level Houston Center
08:39PM 31.8297 -92.8167 219° Southwest 391 450 22,000  Level Houston Center
08:40PM 31.7464 -92.8986 220° Southwest 394 453 22,000  Level Houston Center
08:41PM 31.6608 -92.9792 219° Southwest 396 456 22,000  Level Houston Center
08:42PM 31.5606 -93.0758 219° Southwest 395 455 22,000  Level Houston Center
08:43PM 31.4764 -93.1581 220° Southwest 396 456 22,000  Level Houston Center
08:44PM 31.3917 -93.2381 219° Southwest 395 455 22,000  Level Houston Center
08:45PM 31.3058 -93.3203 219° Southwest 399 459 22,000  Level Houston Center
08:46PM 31.2225 -93.3997 219° Southwest 400 460 22,000  Level Houston Center
08:47PM 31.1197 -93.4953 219° Southwest 396 456 22,000  Level Houston Center
08:48PM 31.0353 -93.5764 219° Southwest 394 453 22,000  Level Houston Center
08:49PM 30.9511 -93.6569 219° Southwest 393 452 22,000  Level Houston Center
08:50PM 30.8656 -93.7378 219° Southwest 396 456 22,000  Level Houston Center
08:51PM 30.7811 -93.8178 219° Southwest 395 455 22,000  Level Houston Center
08:52PM 30.6956 -93.8989 219° Southwest 398 458 22,000 -780 Level Houston Center
08:53PM 30.5936 -93.9953 219° Southwest 398 458 20,500 -1,920 Descending Houston Center
08:54PM 30.5103 -94.0725 219° Southwest 389 448 18,100 -2,340 Descending Houston Center
08:55PM 30.4303 -94.1469 219° Southwest 375 432 15,700 -2,460 Descending Houston Center
08:56PM 30.3364 -94.2325 218° Southwest 363 418 12,900 -1,860 Descending Houston Center
08:57PM 30.2753 -94.2911 220° Southwest 356 410 12,000 -540 Descending Houston Center
08:58PM 30.2064 -94.3611 221° Southwest 320 368 12,000 -300 Level Houston Center
08:59PM 30.1803 -94.4586 253° West 320 368 11,500 -840 Descending Houston Center
09:00PM 30.1628 -94.5603 259° West 321 369 10,400 -780 Descending Houston Center
09:01PM 30.1456 -94.6639 259° West 316 364 10,000 -240 Descending Houston Center
09:02PM 30.1300 -94.7625 260° West 316 364 10,000 -240 Level Houston Center
09:03PM 30.1131 -94.8608 259° West 300 345 9,600 -660 Descending Houston Center
09:04PM 30.1056 -94.9483 264° West 279 321 8,600 -1,140 Descending Houston Center
09:05PM 30.1058 -95.0411 270° West 284 327 7,500 -1,140 Descending Houston Center
09:06PM 30.1061 -95.1328 270° West 282 325 6,500 -720 Descending Houston Center
09:07PM 30.1069 -95.2342 271° West 279 321 6,000 -300 Descending Houston Center
09:08PM 30.1078 -95.3089 271° West 229 264 6,000 -300 Level Houston Center
09:09PM 30.1064 -95.3864 269° West 237 273 5,500 -900 Descending Houston Center
09:10PM 30.1061 -95.4542 270° West 234 269 4,300 -1,200 Descending Houston Center
09:11PM 30.1072 -95.4656 276° West 234 269 4,100 -1,620 Descending Houston Center
09:12PM 30.0467 -95.4925 201° Southwest 227 261 2,400 -1,860 Descending Houston Center